sensor_id;sensor_type;location;lat;lon;timestamp;P1;durP1;ratioP1;P2;durP2;ratioP2
70467;SDS011;57934;51.532;7.684;2024-01-07T00:01:24;58.55;;;22.95;;
70467;SDS011;57934;51.532;7.684;2024-01-07T00:03:51;56.65;;;23.92;;
70467;SDS011;57934;51.532;7.684;2024-01-07T00:06:17;60.45;;;23.33;;
70467;SDS011;57934;51.532;7.684;2024-01-07T00:08:44;58.28;;;22.85;;
70467;SDS011;57934;51.532;7.684;2024-01-07T00:11:10;60.72;;;24.98;;
70467;SDS011;57934;51.532;7.684;2024-01-07T00:13:36;61.60;;;25.17;;
70467;SDS011;57934;51.532;7.684;2024-01-07T00:16:02;57.17;;;24.20;;
70467;SDS011;57934;51.532;7.684;2024-01-07T00:18:28;59.65;;;23.67;;
70467;SDS011;57934;51.532;7.684;2024-01-07T00:20:54;56.42;;;23.65;;
70467;SDS011;57934;51.532;7.684;2024-01-07T00:23:20;51.58;;;23.17;;
70467;SDS011;57934;51.532;7.684;2024-01-07T00:25:47;55.65;;;23.23;;
70467;SDS011;57934;51.532;7.684;2024-01-07T00:28:13;52.30;;;22.63;;
70467;SDS011;57934;51.532;7.684;2024-01-07T00:30:39;49.15;;;22.95;;
70467;SDS011;57934;51.532;7.684;2024-01-07T00:33:05;48.03;;;21.80;;
70467;SDS011;57934;51.532;7.684;2024-01-07T00:35:31;51.22;;;21.73;;
70467;SDS011;57934;51.532;7.684;2024-01-07T00:37:58;44.63;;;21.27;;
70467;SDS011;57934;51.532;7.684;2024-01-07T00:40:24;51.65;;;22.35;;
70467;SDS011;57934;51.532;7.684;2024-01-07T00:42:50;48.72;;;21.60;;
70467;SDS011;57934;51.532;7.684;2024-01-07T00:45:19;54.28;;;22.33;;
70467;SDS011;57934;51.532;7.684;2024-01-07T00:47:46;55.55;;;22.73;;
70467;SDS011;57934;51.532;7.684;2024-01-07T00:50:12;46.80;;;21.83;;
70467;SDS011;57934;51.532;7.684;2024-01-07T00:52:38;53.80;;;23.65;;
70467;SDS011;57934;51.532;7.684;2024-01-07T00:55:05;52.83;;;25.13;;
70467;SDS011;57934;51.532;7.684;2024-01-07T00:57:32;49.85;;;22.48;;
70467;SDS011;57934;51.532;7.684;2024-01-07T00:59:59;51.33;;;22.98;;
70467;SDS011;57934;51.532;7.684;2024-01-07T01:02:26;57.22;;;24.88;;
70467;SDS011;57934;51.532;7.684;2024-01-07T01:04:52;55.95;;;23.75;;
70467;SDS011;57934;51.532;7.684;2024-01-07T01:07:18;52.40;;;23.35;;
70467;SDS011;57934;51.532;7.684;2024-01-07T01:09:44;54.13;;;25.48;;
70467;SDS011;57934;51.532;7.684;2024-01-07T01:12:10;56.10;;;26.42;;
70467;SDS011;57934;51.532;7.684;2024-01-07T01:14:36;57.45;;;26.45;;
70467;SDS011;57934;51.532;7.684;2024-01-07T01:17:02;54.83;;;22.73;;
70467;SDS011;57934;51.532;7.684;2024-01-07T01:19:29;55.47;;;26.02;;
70467;SDS011;57934;51.532;7.684;2024-01-07T01:21:55;59.40;;;27.40;;
70467;SDS011;57934;51.532;7.684;2024-01-07T01:24:20;59.88;;;27.30;;
70467;SDS011;57934;51.532;7.684;2024-01-07T01:26:47;56.67;;;24.73;;
70467;SDS011;57934;51.532;7.684;2024-01-07T01:29:13;63.80;;;27.33;;
70467;SDS011;57934;51.532;7.684;2024-01-07T01:31:39;61.88;;;27.27;;
70467;SDS011;57934;51.532;7.684;2024-01-07T01:34:05;64.80;;;27.58;;
70467;SDS011;57934;51.532;7.684;2024-01-07T01:36:31;57.80;;;27.15;;
70467;SDS011;57934;51.532;7.684;2024-01-07T01:38:57;63.67;;;27.58;;
70467;SDS011;57934;51.532;7.684;2024-01-07T01:41:23;54.95;;;27.38;;
70467;SDS011;57934;51.532;7.684;2024-01-07T01:43:49;60.38;;;27.15;;
70467;SDS011;57934;51.532;7.684;2024-01-07T01:46:15;60.38;;;28.75;;
70467;SDS011;57934;51.532;7.684;2024-01-07T01:48:42;58.92;;;26.77;;
70467;SDS011;57934;51.532;7.684;2024-01-07T01:51:08;61.08;;;27.10;;
70467;SDS011;57934;51.532;7.684;2024-01-07T01:53:35;59.83;;;29.23;;
70467;SDS011;57934;51.532;7.684;2024-01-07T01:56:03;55.42;;;27.10;;
70467;SDS011;57934;51.532;7.684;2024-01-07T01:58:29;58.47;;;28.42;;
70467;SDS011;57934;51.532;7.684;2024-01-07T02:00:56;55.95;;;27.70;;
70467;SDS011;57934;51.532;7.684;2024-01-07T02:03:23;58.45;;;28.83;;
70467;SDS011;57934;51.532;7.684;2024-01-07T02:05:49;51.28;;;25.85;;
70467;SDS011;57934;51.532;7.684;2024-01-07T02:08:16;49.03;;;25.08;;
70467;SDS011;57934;51.532;7.684;2024-01-07T02:10:44;53.13;;;25.88;;
70467;SDS011;57934;51.532;7.684;2024-01-07T02:13:10;47.83;;;24.67;;
70467;SDS011;57934;51.532;7.684;2024-01-07T02:15:36;44.92;;;23.42;;
70467;SDS011;57934;51.532;7.684;2024-01-07T02:18:03;44.25;;;24.55;;
70467;SDS011;57934;51.532;7.684;2024-01-07T02:20:29;50.72;;;26.02;;
70467;SDS011;57934;51.532;7.684;2024-01-07T02:22:55;42.88;;;23.00;;
70467;SDS011;57934;51.532;7.684;2024-01-07T02:25:24;45.63;;;24.40;;
70467;SDS011;57934;51.532;7.684;2024-01-07T02:27:50;46.05;;;23.88;;
70467;SDS011;57934;51.532;7.684;2024-01-07T02:30:16;44.55;;;23.05;;
70467;SDS011;57934;51.532;7.684;2024-01-07T02:32:43;41.90;;;23.35;;
70467;SDS011;57934;51.532;7.684;2024-01-07T02:35:09;40.85;;;23.55;;
70467;SDS011;57934;51.532;7.684;2024-01-07T02:37:35;33.80;;;20.63;;
70467;SDS011;57934;51.532;7.684;2024-01-07T02:40:01;37.42;;;21.08;;
70467;SDS011;57934;51.532;7.684;2024-01-07T02:42:27;38.50;;;21.70;;
70467;SDS011;57934;51.532;7.684;2024-01-07T02:44:54;36.42;;;22.08;;
70467;SDS011;57934;51.532;7.684;2024-01-07T02:47:20;34.60;;;20.77;;
70467;SDS011;57934;51.532;7.684;2024-01-07T02:49:46;32.33;;;19.73;;
70467;SDS011;57934;51.532;7.684;2024-01-07T02:52:12;36.85;;;20.98;;
70467;SDS011;57934;51.532;7.684;2024-01-07T02:54:38;34.72;;;20.02;;
70467;SDS011;57934;51.532;7.684;2024-01-07T02:57:04;33.40;;;19.65;;
70467;SDS011;57934;51.532;7.684;2024-01-07T02:59:30;34.78;;;21.13;;
70467;SDS011;57934;51.532;7.684;2024-01-07T03:01:56;36.28;;;21.17;;
70467;SDS011;57934;51.532;7.684;2024-01-07T03:04:22;32.40;;;20.58;;
70467;SDS011;57934;51.532;7.684;2024-01-07T03:06:48;36.33;;;21.40;;
70467;SDS011;57934;51.532;7.684;2024-01-07T03:09:14;33.50;;;19.95;;
70467;SDS011;57934;51.532;7.684;2024-01-07T03:11:40;39.15;;;20.65;;
70467;SDS011;57934;51.532;7.684;2024-01-07T03:14:07;33.65;;;20.15;;
70467;SDS011;57934;51.532;7.684;2024-01-07T03:16:33;35.10;;;20.95;;
70467;SDS011;57934;51.532;7.684;2024-01-07T03:18:59;35.22;;;20.88;;
70467;SDS011;57934;51.532;7.684;2024-01-07T03:21:26;38.58;;;21.85;;
70467;SDS011;57934;51.532;7.684;2024-01-07T03:23:52;37.28;;;21.38;;
70467;SDS011;57934;51.532;7.684;2024-01-07T03:26:18;35.50;;;21.52;;
70467;SDS011;57934;51.532;7.684;2024-01-07T03:28:45;40.33;;;22.70;;
70467;SDS011;57934;51.532;7.684;2024-01-07T03:31:14;42.10;;;23.45;;
70467;SDS011;57934;51.532;7.684;2024-01-07T03:33:41;41.05;;;22.30;;
70467;SDS011;57934;51.532;7.684;2024-01-07T03:36:09;41.78;;;23.05;;
70467;SDS011;57934;51.532;7.684;2024-01-07T03:38:36;48.17;;;22.50;;
70467;SDS011;57934;51.532;7.684;2024-01-07T03:41:03;46.70;;;24.15;;
70467;SDS011;57934;51.532;7.684;2024-01-07T03:43:29;43.47;;;22.55;;
70467;SDS011;57934;51.532;7.684;2024-01-07T03:45:56;46.53;;;23.75;;
70467;SDS011;57934;51.532;7.684;2024-01-07T03:48:22;41.70;;;23.15;;
70467;SDS011;57934;51.532;7.684;2024-01-07T03:50:48;45.15;;;23.65;;
70467;SDS011;57934;51.532;7.684;2024-01-07T03:53:15;42.35;;;22.52;;
70467;SDS011;57934;51.532;7.684;2024-01-07T03:55:41;42.17;;;22.65;;
70467;SDS011;57934;51.532;7.684;2024-01-07T03:58:07;38.65;;;21.58;;
70467;SDS011;57934;51.532;7.684;2024-01-07T04:00:34;44.95;;;22.80;;
70467;SDS011;57934;51.532;7.684;2024-01-07T04:03:00;35.05;;;20.98;;
70467;SDS011;57934;51.532;7.684;2024-01-07T04:05:28;35.80;;;19.92;;
70467;SDS011;57934;51.532;7.684;2024-01-07T04:07:55;36.85;;;21.25;;
70467;SDS011;57934;51.532;7.684;2024-01-07T04:10:21;38.97;;;21.95;;
70467;SDS011;57934;51.532;7.684;2024-01-07T04:12:47;35.72;;;19.02;;
70467;SDS011;57934;51.532;7.684;2024-01-07T04:15:13;36.75;;;21.20;;
70467;SDS011;57934;51.532;7.684;2024-01-07T04:17:39;33.60;;;20.60;;
70467;SDS011;57934;51.532;7.684;2024-01-07T04:20:06;37.60;;;20.70;;
70467;SDS011;57934;51.532;7.684;2024-01-07T04:22:33;36.13;;;20.10;;
70467;SDS011;57934;51.532;7.684;2024-01-07T04:24:59;35.42;;;20.17;;
70467;SDS011;57934;51.532;7.684;2024-01-07T04:27:26;33.33;;;18.65;;
70467;SDS011;57934;51.532;7.684;2024-01-07T04:29:52;34.03;;;19.42;;
70467;SDS011;57934;51.532;7.684;2024-01-07T04:32:18;37.20;;;19.60;;
70467;SDS011;57934;51.532;7.684;2024-01-07T04:34:44;34.05;;;19.27;;
70467;SDS011;57934;51.532;7.684;2024-01-07T04:37:10;30.75;;;18.00;;
70467;SDS011;57934;51.532;7.684;2024-01-07T04:39:36;31.00;;;19.05;;
70467;SDS011;57934;51.532;7.684;2024-01-07T04:42:02;32.28;;;18.95;;
70467;SDS011;57934;51.532;7.684;2024-01-07T04:44:28;36.72;;;21.15;;
70467;SDS011;57934;51.532;7.684;2024-01-07T04:46:54;32.33;;;19.40;;
70467;SDS011;57934;51.532;7.684;2024-01-07T04:49:20;37.15;;;20.08;;
70467;SDS011;57934;51.532;7.684;2024-01-07T04:51:46;32.47;;;18.98;;
70467;SDS011;57934;51.532;7.684;2024-01-07T04:54:12;32.17;;;18.90;;
70467;SDS011;57934;51.532;7.684;2024-01-07T04:56:39;29.88;;;18.67;;
70467;SDS011;57934;51.532;7.684;2024-01-07T04:59:05;35.17;;;19.00;;
70467;SDS011;57934;51.532;7.684;2024-01-07T05:01:33;34.08;;;20.05;;
70467;SDS011;57934;51.532;7.684;2024-01-07T05:04:04;32.75;;;19.48;;
70467;SDS011;57934;51.532;7.684;2024-01-07T05:06:30;38.30;;;20.15;;
70467;SDS011;57934;51.532;7.684;2024-01-07T05:08:56;35.75;;;19.33;;
70467;SDS011;57934;51.532;7.684;2024-01-07T05:11:22;38.47;;;21.13;;
70467;SDS011;57934;51.532;7.684;2024-01-07T05:13:48;31.55;;;19.67;;
70467;SDS011;57934;51.532;7.684;2024-01-07T05:16:20;33.03;;;20.00;;
70467;SDS011;57934;51.532;7.684;2024-01-07T05:18:46;32.92;;;19.38;;
70467;SDS011;57934;51.532;7.684;2024-01-07T05:21:20;34.47;;;19.83;;
70467;SDS011;57934;51.532;7.684;2024-01-07T05:23:46;32.80;;;19.77;;
70467;SDS011;57934;51.532;7.684;2024-01-07T05:26:12;32.58;;;19.15;;
70467;SDS011;57934;51.532;7.684;2024-01-07T05:28:38;35.13;;;19.63;;
70467;SDS011;57934;51.532;7.684;2024-01-07T05:31:04;35.63;;;19.65;;
70467;SDS011;57934;51.532;7.684;2024-01-07T05:33:30;35.30;;;19.35;;
70467;SDS011;57934;51.532;7.684;2024-01-07T05:35:56;33.38;;;19.30;;
70467;SDS011;57934;51.532;7.684;2024-01-07T05:38:23;37.72;;;20.27;;
70467;SDS011;57934;51.532;7.684;2024-01-07T05:40:49;31.52;;;19.45;;
70467;SDS011;57934;51.532;7.684;2024-01-07T05:43:15;33.42;;;20.25;;
70467;SDS011;57934;51.532;7.684;2024-01-07T05:45:41;31.35;;;18.58;;
70467;SDS011;57934;51.532;7.684;2024-01-07T05:48:07;32.63;;;19.58;;
70467;SDS011;57934;51.532;7.684;2024-01-07T05:50:33;31.50;;;19.55;;
70467;SDS011;57934;51.532;7.684;2024-01-07T05:52:59;31.83;;;19.50;;
70467;SDS011;57934;51.532;7.684;2024-01-07T05:55:26;31.63;;;18.27;;
70467;SDS011;57934;51.532;7.684;2024-01-07T05:57:52;32.13;;;19.90;;
70467;SDS011;57934;51.532;7.684;2024-01-07T06:00:18;32.60;;;19.95;;
70467;SDS011;57934;51.532;7.684;2024-01-07T06:02:44;32.40;;;19.35;;
70467;SDS011;57934;51.532;7.684;2024-01-07T06:05:10;36.22;;;20.05;;
70467;SDS011;57934;51.532;7.684;2024-01-07T06:07:36;31.60;;;19.05;;
70467;SDS011;57934;51.532;7.684;2024-01-07T06:10:02;32.13;;;19.55;;
70467;SDS011;57934;51.532;7.684;2024-01-07T06:12:28;30.40;;;17.80;;
70467;SDS011;57934;51.532;7.684;2024-01-07T06:14:54;31.15;;;18.52;;
70467;SDS011;57934;51.532;7.684;2024-01-07T06:17:20;29.73;;;18.73;;
70467;SDS011;57934;51.532;7.684;2024-01-07T06:19:46;33.08;;;19.08;;
70467;SDS011;57934;51.532;7.684;2024-01-07T06:22:12;32.05;;;19.15;;
70467;SDS011;57934;51.532;7.684;2024-01-07T06:24:38;28.58;;;18.00;;
70467;SDS011;57934;51.532;7.684;2024-01-07T06:27:04;30.77;;;18.08;;
70467;SDS011;57934;51.532;7.684;2024-01-07T06:29:30;29.17;;;16.88;;
70467;SDS011;57934;51.532;7.684;2024-01-07T06:31:56;23.73;;;14.68;;
70467;SDS011;57934;51.532;7.684;2024-01-07T06:34:22;26.27;;;14.45;;
70467;SDS011;57934;51.532;7.684;2024-01-07T06:36:48;22.85;;;14.43;;
70467;SDS011;57934;51.532;7.684;2024-01-07T06:39:14;24.13;;;15.43;;
70467;SDS011;57934;51.532;7.684;2024-01-07T06:41:40;24.23;;;15.13;;
70467;SDS011;57934;51.532;7.684;2024-01-07T06:44:07;19.42;;;13.57;;
70467;SDS011;57934;51.532;7.684;2024-01-07T06:46:33;19.92;;;12.77;;
70467;SDS011;57934;51.532;7.684;2024-01-07T06:49:00;16.92;;;11.68;;
70467;SDS011;57934;51.532;7.684;2024-01-07T06:51:26;18.60;;;11.80;;
70467;SDS011;57934;51.532;7.684;2024-01-07T06:53:53;21.70;;;14.02;;
70467;SDS011;57934;51.532;7.684;2024-01-07T06:56:19;25.50;;;15.05;;
70467;SDS011;57934;51.532;7.684;2024-01-07T06:58:45;22.92;;;13.70;;
70467;SDS011;57934;51.532;7.684;2024-01-07T07:01:11;22.73;;;14.38;;
70467;SDS011;57934;51.532;7.684;2024-01-07T07:03:37;21.15;;;12.60;;
70467;SDS011;57934;51.532;7.684;2024-01-07T07:06:03;18.98;;;12.82;;
70467;SDS011;57934;51.532;7.684;2024-01-07T07:08:29;22.10;;;13.55;;
70467;SDS011;57934;51.532;7.684;2024-01-07T07:10:55;21.15;;;13.30;;
70467;SDS011;57934;51.532;7.684;2024-01-07T07:13:21;17.95;;;11.80;;
70467;SDS011;57934;51.532;7.684;2024-01-07T07:15:47;17.90;;;12.18;;
70467;SDS011;57934;51.532;7.684;2024-01-07T07:18:13;21.83;;;13.25;;
70467;SDS011;57934;51.532;7.684;2024-01-07T07:20:40;16.42;;;11.32;;
70467;SDS011;57934;51.532;7.684;2024-01-07T07:23:06;19.10;;;12.45;;
70467;SDS011;57934;51.532;7.684;2024-01-07T07:25:32;16.85;;;11.82;;
70467;SDS011;57934;51.532;7.684;2024-01-07T07:27:59;15.93;;;11.35;;
70467;SDS011;57934;51.532;7.684;2024-01-07T07:30:24;16.45;;;10.32;;
70467;SDS011;57934;51.532;7.684;2024-01-07T07:32:51;19.48;;;11.77;;
70467;SDS011;57934;51.532;7.684;2024-01-07T07:35:17;16.50;;;11.07;;
70467;SDS011;57934;51.532;7.684;2024-01-07T07:37:43;21.58;;;12.88;;
70467;SDS011;57934;51.532;7.684;2024-01-07T07:40:09;19.30;;;12.38;;
70467;SDS011;57934;51.532;7.684;2024-01-07T07:42:38;20.60;;;12.77;;
70467;SDS011;57934;51.532;7.684;2024-01-07T07:45:05;22.02;;;13.70;;
70467;SDS011;57934;51.532;7.684;2024-01-07T07:47:31;21.40;;;13.00;;
70467;SDS011;57934;51.532;7.684;2024-01-07T07:49:57;21.50;;;13.63;;
70467;SDS011;57934;51.532;7.684;2024-01-07T07:52:24;23.98;;;14.98;;
70467;SDS011;57934;51.532;7.684;2024-01-07T07:54:52;21.55;;;13.40;;
70467;SDS011;57934;51.532;7.684;2024-01-07T07:57:18;21.65;;;13.95;;
70467;SDS011;57934;51.532;7.684;2024-01-07T07:59:47;23.05;;;14.23;;
70467;SDS011;57934;51.532;7.684;2024-01-07T08:02:14;25.55;;;15.38;;
70467;SDS011;57934;51.532;7.684;2024-01-07T08:04:40;27.88;;;15.77;;
70467;SDS011;57934;51.532;7.684;2024-01-07T08:07:09;25.17;;;15.85;;
70467;SDS011;57934;51.532;7.684;2024-01-07T08:09:35;22.20;;;15.15;;
70467;SDS011;57934;51.532;7.684;2024-01-07T08:12:03;24.15;;;15.85;;
70467;SDS011;57934;51.532;7.684;2024-01-07T08:14:32;22.98;;;14.32;;
70467;SDS011;57934;51.532;7.684;2024-01-07T08:16:59;21.17;;;13.98;;
70467;SDS011;57934;51.532;7.684;2024-01-07T08:19:25;21.65;;;14.32;;
70467;SDS011;57934;51.532;7.684;2024-01-07T08:21:51;22.13;;;13.13;;
70467;SDS011;57934;51.532;7.684;2024-01-07T08:24:18;19.30;;;12.68;;
70467;SDS011;57934;51.532;7.684;2024-01-07T08:26:44;18.88;;;12.30;;
70467;SDS011;57934;51.532;7.684;2024-01-07T08:29:10;21.10;;;13.00;;
70467;SDS011;57934;51.532;7.684;2024-01-07T08:31:37;18.77;;;12.52;;
70467;SDS011;57934;51.532;7.684;2024-01-07T08:34:05;19.70;;;12.23;;
70467;SDS011;57934;51.532;7.684;2024-01-07T08:36:31;20.08;;;12.48;;
70467;SDS011;57934;51.532;7.684;2024-01-07T08:38:57;17.88;;;11.98;;
70467;SDS011;57934;51.532;7.684;2024-01-07T08:41:23;16.45;;;11.85;;
70467;SDS011;57934;51.532;7.684;2024-01-07T08:43:49;18.15;;;11.43;;
70467;SDS011;57934;51.532;7.684;2024-01-07T08:46:16;18.38;;;11.55;;
70467;SDS011;57934;51.532;7.684;2024-01-07T08:48:42;17.33;;;10.77;;
70467;SDS011;57934;51.532;7.684;2024-01-07T08:51:08;14.30;;;10.13;;
70467;SDS011;57934;51.532;7.684;2024-01-07T08:53:34;18.40;;;10.27;;
70467;SDS011;57934;51.532;7.684;2024-01-07T08:56:00;16.67;;;10.60;;
70467;SDS011;57934;51.532;7.684;2024-01-07T08:58:26;17.77;;;11.30;;
70467;SDS011;57934;51.532;7.684;2024-01-07T09:00:52;17.90;;;9.70;;
70467;SDS011;57934;51.532;7.684;2024-01-07T09:03:18;14.55;;;9.40;;
70467;SDS011;57934;51.532;7.684;2024-01-07T09:05:44;12.98;;;8.90;;
70467;SDS011;57934;51.532;7.684;2024-01-07T09:08:10;13.25;;;9.15;;
70467;SDS011;57934;51.532;7.684;2024-01-07T09:10:40;14.70;;;9.07;;
70467;SDS011;57934;51.532;7.684;2024-01-07T09:13:06;16.10;;;9.15;;
70467;SDS011;57934;51.532;7.684;2024-01-07T09:15:32;13.25;;;8.52;;
70467;SDS011;57934;51.532;7.684;2024-01-07T09:17:58;13.98;;;9.55;;
70467;SDS011;57934;51.532;7.684;2024-01-07T09:20:24;17.27;;;8.68;;
70467;SDS011;57934;51.532;7.684;2024-01-07T09:22:50;16.27;;;8.30;;
70467;SDS011;57934;51.532;7.684;2024-01-07T09:25:16;13.75;;;8.75;;
70467;SDS011;57934;51.532;7.684;2024-01-07T09:27:43;17.30;;;8.23;;
70467;SDS011;57934;51.532;7.684;2024-01-07T09:30:09;12.07;;;7.95;;
70467;SDS011;57934;51.532;7.684;2024-01-07T09:32:37;13.38;;;7.30;;
70467;SDS011;57934;51.532;7.684;2024-01-07T09:35:03;12.80;;;6.43;;
70467;SDS011;57934;51.532;7.684;2024-01-07T09:37:31;9.73;;;6.53;;
70467;SDS011;57934;51.532;7.684;2024-01-07T09:39:57;12.18;;;6.50;;
70467;SDS011;57934;51.532;7.684;2024-01-07T09:42:24;12.70;;;7.15;;
70467;SDS011;57934;51.532;7.684;2024-01-07T09:44:50;8.15;;;6.43;;
70467;SDS011;57934;51.532;7.684;2024-01-07T09:47:16;10.73;;;6.00;;
70467;SDS011;57934;51.532;7.684;2024-01-07T09:49:43;9.60;;;6.53;;
70467;SDS011;57934;51.532;7.684;2024-01-07T09:52:10;11.98;;;7.13;;
70467;SDS011;57934;51.532;7.684;2024-01-07T09:54:37;9.13;;;6.43;;
70467;SDS011;57934;51.532;7.684;2024-01-07T09:57:05;16.85;;;7.28;;
70467;SDS011;57934;51.532;7.684;2024-01-07T09:59:36;11.32;;;6.15;;
70467;SDS011;57934;51.532;7.684;2024-01-07T10:02:03;10.68;;;6.80;;
70467;SDS011;57934;51.532;7.684;2024-01-07T10:04:29;9.55;;;6.20;;
70467;SDS011;57934;51.532;7.684;2024-01-07T10:06:56;8.60;;;5.85;;
70467;SDS011;57934;51.532;7.684;2024-01-07T10:09:23;10.43;;;5.53;;
70467;SDS011;57934;51.532;7.684;2024-01-07T10:11:53;9.50;;;5.10;;
70467;SDS011;57934;51.532;7.684;2024-01-07T10:14:20;10.82;;;5.85;;
70467;SDS011;57934;51.532;7.684;2024-01-07T10:16:51;7.90;;;4.78;;
70467;SDS011;57934;51.532;7.684;2024-01-07T10:19:21;10.75;;;4.97;;
70467;SDS011;57934;51.532;7.684;2024-01-07T10:24:36;6.50;;;4.75;;
70467;SDS011;57934;51.532;7.684;2024-01-07T10:27:04;7.45;;;5.82;;
70467;SDS011;57934;51.532;7.684;2024-01-07T10:29:31;6.75;;;5.07;;
70467;SDS011;57934;51.532;7.684;2024-01-07T10:31:59;7.63;;;5.00;;
70467;SDS011;57934;51.532;7.684;2024-01-07T10:34:28;6.65;;;4.88;;
70467;SDS011;57934;51.532;7.684;2024-01-07T10:36:58;9.00;;;5.78;;
70467;SDS011;57934;51.532;7.684;2024-01-07T10:39:25;6.63;;;3.92;;
70467;SDS011;57934;51.532;7.684;2024-01-07T10:41:52;5.22;;;4.57;;
70467;SDS011;57934;51.532;7.684;2024-01-07T10:44:32;6.28;;;4.93;;
70467;SDS011;57934;51.532;7.684;2024-01-07T10:46:59;7.40;;;4.93;;
70467;SDS011;57934;51.532;7.684;2024-01-07T10:49:26;8.10;;;4.40;;
70467;SDS011;57934;51.532;7.684;2024-01-07T10:52:06;5.00;;;4.43;;
70467;SDS011;57934;51.532;7.684;2024-01-07T10:54:34;6.97;;;4.88;;
70467;SDS011;57934;51.532;7.684;2024-01-07T10:57:04;6.88;;;4.70;;
70467;SDS011;57934;51.532;7.684;2024-01-07T10:59:38;7.40;;;4.93;;
70467;SDS011;57934;51.532;7.684;2024-01-07T11:02:07;5.93;;;4.70;;
70467;SDS011;57934;51.532;7.684;2024-01-07T11:04:40;5.60;;;4.53;;
70467;SDS011;57934;51.532;7.684;2024-01-07T11:07:18;5.88;;;4.78;;
70467;SDS011;57934;51.532;7.684;2024-01-07T11:12:31;9.30;;;5.00;;
70467;SDS011;57934;51.532;7.684;2024-01-07T11:14:58;6.55;;;4.53;;
70467;SDS011;57934;51.532;7.684;2024-01-07T11:20:04;5.60;;;4.65;;
70467;SDS011;57934;51.532;7.684;2024-01-07T11:22:31;6.30;;;4.60;;
70467;SDS011;57934;51.532;7.684;2024-01-07T11:24:59;7.72;;;4.93;;
70467;SDS011;57934;51.532;7.684;2024-01-07T11:27:28;6.60;;;5.22;;
70467;SDS011;57934;51.532;7.684;2024-01-07T11:29:57;8.63;;;4.95;;
70467;SDS011;57934;51.532;7.684;2024-01-07T11:32:29;6.30;;;4.53;;
70467;SDS011;57934;51.532;7.684;2024-01-07T11:34:56;6.57;;;5.25;;
70467;SDS011;57934;51.532;7.684;2024-01-07T11:37:25;7.32;;;5.15;;
70467;SDS011;57934;51.532;7.684;2024-01-07T11:39:53;6.03;;;5.13;;
70467;SDS011;57934;51.532;7.684;2024-01-07T11:42:21;5.43;;;4.15;;
70467;SDS011;57934;51.532;7.684;2024-01-07T11:44:52;4.68;;;4.00;;
70467;SDS011;57934;51.532;7.684;2024-01-07T11:47:20;6.35;;;4.20;;
70467;SDS011;57934;51.532;7.684;2024-01-07T11:49:47;5.85;;;3.88;;
70467;SDS011;57934;51.532;7.684;2024-01-07T11:52:14;6.63;;;4.30;;
70467;SDS011;57934;51.532;7.684;2024-01-07T11:54:41;4.72;;;3.85;;
70467;SDS011;57934;51.532;7.684;2024-01-07T11:57:07;4.72;;;3.75;;
70467;SDS011;57934;51.532;7.684;2024-01-07T11:59:34;4.20;;;3.75;;
70467;SDS011;57934;51.532;7.684;2024-01-07T12:02:00;5.65;;;3.28;;
70467;SDS011;57934;51.532;7.684;2024-01-07T12:04:30;5.53;;;3.60;;
70467;SDS011;57934;51.532;7.684;2024-01-07T12:06:56;4.47;;;3.42;;
70467;SDS011;57934;51.532;7.684;2024-01-07T12:09:23;7.32;;;4.30;;
70467;SDS011;57934;51.532;7.684;2024-01-07T12:11:49;7.15;;;4.13;;
70467;SDS011;57934;51.532;7.684;2024-01-07T12:14:15;5.95;;;4.20;;
70467;SDS011;57934;51.532;7.684;2024-01-07T12:16:42;7.55;;;4.15;;
70467;SDS011;57934;51.532;7.684;2024-01-07T12:19:08;6.72;;;3.90;;
70467;SDS011;57934;51.532;7.684;2024-01-07T12:21:35;10.40;;;3.70;;
70467;SDS011;57934;51.532;7.684;2024-01-07T12:24:02;5.93;;;3.88;;
70467;SDS011;57934;51.532;7.684;2024-01-07T12:26:29;3.45;;;3.15;;
70467;SDS011;57934;51.532;7.684;2024-01-07T12:28:59;6.10;;;3.35;;
70467;SDS011;57934;51.532;7.684;2024-01-07T12:31:32;3.40;;;3.10;;
70467;SDS011;57934;51.532;7.684;2024-01-07T12:34:00;4.60;;;3.00;;
70467;SDS011;57934;51.532;7.684;2024-01-07T12:36:29;4.15;;;2.50;;
70467;SDS011;57934;51.532;7.684;2024-01-07T12:38:56;3.65;;;2.90;;
70467;SDS011;57934;51.532;7.684;2024-01-07T12:41:23;5.30;;;3.38;;
70467;SDS011;57934;51.532;7.684;2024-01-07T12:43:50;5.28;;;3.50;;
70467;SDS011;57934;51.532;7.684;2024-01-07T12:46:16;4.60;;;3.55;;
70467;SDS011;57934;51.532;7.684;2024-01-07T12:48:42;4.38;;;2.90;;
70467;SDS011;57934;51.532;7.684;2024-01-07T12:51:08;3.30;;;2.63;;
70467;SDS011;57934;51.532;7.684;2024-01-07T12:53:34;5.43;;;3.03;;
70467;SDS011;57934;51.532;7.684;2024-01-07T12:56:01;3.28;;;2.50;;
70467;SDS011;57934;51.532;7.684;2024-01-07T12:58:27;5.25;;;3.05;;
70467;SDS011;57934;51.532;7.684;2024-01-07T13:00:53;3.33;;;2.83;;
70467;SDS011;57934;51.532;7.684;2024-01-07T13:03:19;3.78;;;2.97;;
70467;SDS011;57934;51.532;7.684;2024-01-07T13:05:46;3.97;;;2.95;;
70467;SDS011;57934;51.532;7.684;2024-01-07T13:08:16;3.72;;;2.25;;
70467;SDS011;57934;51.532;7.684;2024-01-07T13:10:44;5.63;;;2.80;;
70467;SDS011;57934;51.532;7.684;2024-01-07T13:13:11;2.65;;;2.30;;
70467;SDS011;57934;51.532;7.684;2024-01-07T13:15:38;4.68;;;2.92;;
70467;SDS011;57934;51.532;7.684;2024-01-07T13:18:07;3.60;;;2.75;;
70467;SDS011;57934;51.532;7.684;2024-01-07T13:20:33;3.58;;;3.00;;
70467;SDS011;57934;51.532;7.684;2024-01-07T13:23:01;5.30;;;3.22;;
70467;SDS011;57934;51.532;7.684;2024-01-07T13:25:29;7.22;;;3.67;;
70467;SDS011;57934;51.532;7.684;2024-01-07T13:27:56;4.70;;;3.10;;
70467;SDS011;57934;51.532;7.684;2024-01-07T13:30:24;3.92;;;2.92;;
70467;SDS011;57934;51.532;7.684;2024-01-07T13:32:50;4.10;;;3.70;;
70467;SDS011;57934;51.532;7.684;2024-01-07T13:35:17;4.10;;;2.75;;
70467;SDS011;57934;51.532;7.684;2024-01-07T13:37:43;3.40;;;2.70;;
70467;SDS011;57934;51.532;7.684;2024-01-07T13:40:10;3.75;;;2.70;;
70467;SDS011;57934;51.532;7.684;2024-01-07T13:42:37;2.95;;;2.70;;
70467;SDS011;57934;51.532;7.684;2024-01-07T13:45:04;3.97;;;2.75;;
70467;SDS011;57934;51.532;7.684;2024-01-07T13:47:30;3.63;;;2.55;;
70467;SDS011;57934;51.532;7.684;2024-01-07T13:49:56;3.45;;;2.80;;
70467;SDS011;57934;51.532;7.684;2024-01-07T13:52:22;3.85;;;2.67;;
70467;SDS011;57934;51.532;7.684;2024-01-07T13:54:49;4.88;;;2.50;;
70467;SDS011;57934;51.532;7.684;2024-01-07T13:57:15;2.80;;;2.50;;
70467;SDS011;57934;51.532;7.684;2024-01-07T13:59:41;3.33;;;2.95;;
70467;SDS011;57934;51.532;7.684;2024-01-07T14:02:07;3.13;;;2.60;;
70467;SDS011;57934;51.532;7.684;2024-01-07T14:04:35;2.40;;;2.20;;
70467;SDS011;57934;51.532;7.684;2024-01-07T14:07:01;4.00;;;2.70;;
70467;SDS011;57934;51.532;7.684;2024-01-07T14:09:27;2.20;;;2.10;;
70467;SDS011;57934;51.532;7.684;2024-01-07T14:11:57;4.35;;;2.72;;
70467;SDS011;57934;51.532;7.684;2024-01-07T14:14:24;4.13;;;2.67;;
70467;SDS011;57934;51.532;7.684;2024-01-07T14:16:50;5.60;;;3.10;;
70467;SDS011;57934;51.532;7.684;2024-01-07T14:19:16;4.85;;;3.25;;
70467;SDS011;57934;51.532;7.684;2024-01-07T14:21:42;4.70;;;3.15;;
70467;SDS011;57934;51.532;7.684;2024-01-07T14:24:08;3.55;;;2.97;;
70467;SDS011;57934;51.532;7.684;2024-01-07T14:26:34;5.47;;;2.80;;
70467;SDS011;57934;51.532;7.684;2024-01-07T14:29:00;3.78;;;3.20;;
70467;SDS011;57934;51.532;7.684;2024-01-07T14:31:26;3.05;;;2.50;;
70467;SDS011;57934;51.532;7.684;2024-01-07T14:33:52;3.70;;;2.80;;
70467;SDS011;57934;51.532;7.684;2024-01-07T14:36:18;3.45;;;2.65;;